createdAt,value
2019-05-17T00:02:37.391Z,85.63
2019-05-17T00:05:23.705Z,85.66
2019-05-17T00:08:10.927Z,85.62
2019-05-17T00:11:12.559Z,85.83
2019-05-17T00:13:59.582Z,85.51
2019-05-17T00:16:47.094Z,85.39
2019-05-17T00:19:46.364Z,84.94
2019-05-17T00:22:28.902Z,84.59
2019-05-17T00:25:30.913Z,84.59
2019-05-17T00:28:18.305Z,84.66
2019-05-17T00:31:06.688Z,84.52
2019-05-17T00:34:07.530Z,84.18
2019-05-17T00:36:57.403Z,83.88
2019-05-17T00:39:57.202Z,84.11
2019-05-17T00:42:46.433Z,84.49
2019-05-17T00:45:32.100Z,84.83
2019-05-17T00:48:19.146Z,85.28
2019-05-17T00:51:10.276Z,85.50
2019-05-17T00:53:53.352Z,85.66
2019-05-17T00:56:40.597Z,85.87
2019-05-17T00:59:27.612Z,85.89
2019-05-17T01:02:16.381Z,84.65
2019-05-17T01:05:09.983Z,85.11
2019-05-17T01:08:11.797Z,83.96
2019-05-17T01:10:58.806Z,84.70
2019-05-17T01:13:46.659Z,84.94
2019-05-17T01:16:33.030Z,84.94
2019-05-17T01:19:20.288Z,84.96
2019-05-17T01:22:07.741Z,85.33
2019-05-17T01:24:56.991Z,85.17
2019-05-17T01:27:56.513Z,83.73
2019-05-17T01:33:49.594Z,82.81
2019-05-17T01:36:37.067Z,83.58
2019-05-17T01:39:26.745Z,83.92
2019-05-17T01:42:12.536Z,84.26
2019-05-17T01:44:59.618Z,84.75
2019-05-17T01:48:00.974Z,84.96
2019-05-17T01:50:47.905Z,85.10
2019-05-17T01:53:36.437Z,85.39
2019-05-17T01:56:38.541Z,84.28
2019-05-17T01:59:26.774Z,85.17
2019-05-17T02:02:16.430Z,85.44
2019-05-17T02:05:06.309Z,85.76
2019-05-17T02:07:52.264Z,85.69
2019-05-17T02:10:39.258Z,85.59
2019-05-17T02:13:26.815Z,85.77
2019-05-17T02:16:27.670Z,85.79
2019-05-17T02:19:22.257Z,84.69
2019-05-17T02:22:10.172Z,86.16
2019-05-17T02:24:58.085Z,86.19
2019-05-17T02:27:45.637Z,85.98
2019-05-17T02:30:33.911Z,85.68
2019-05-17T02:33:23.359Z,85.78
2019-05-17T02:36:24.077Z,85.56
2019-05-17T02:39:13.176Z,85.21
2019-05-17T02:42:13.838Z,84.84
2019-05-17T02:45:03.063Z,84.58
2019-05-17T02:47:47.976Z,84.34
2019-05-17T02:50:35.385Z,84.37
2019-05-17T02:53:23.373Z,84.81
2019-05-17T02:56:24.321Z,85.13
2019-05-17T02:59:17.430Z,85.61
2019-05-17T03:02:04.239Z,85.80
2019-05-17T03:04:52.710Z,85.06
2019-05-17T03:07:52.622Z,85.76
2019-05-17T03:10:44.236Z,86.21
2019-05-17T03:13:32.834Z,86.48
2019-05-17T03:16:18.780Z,86.47
2019-05-17T03:19:06.461Z,86.71
2019-05-17T03:21:54.440Z,86.83
2019-05-17T03:24:43.914Z,86.96
2019-05-17T03:27:29.353Z,87.08
2019-05-17T03:30:24.137Z,87.24
2019-05-17T03:33:17.067Z,87.37
2019-05-17T03:36:06.920Z,87.48
2019-05-17T03:38:53.432Z,87.58
2019-05-17T03:41:45.966Z,87.83
2019-05-17T03:44:33.533Z,87.86
2019-05-17T03:47:34.891Z,87.69
2019-05-17T03:50:22.700Z,87.63
2019-05-17T03:56:14.817Z,87.50
2019-05-17T03:59:16.840Z,86.28
2019-05-17T04:02:04.240Z,86.64
2019-05-17T04:04:59.080Z,85.21
2019-05-17T04:07:47.099Z,85.80
2019-05-17T04:10:34.137Z,85.73
2019-05-17T04:13:23.469Z,85.81
2019-05-17T04:16:13.494Z,85.96
2019-05-17T04:18:56.234Z,86.19
2019-05-17T04:21:57.950Z,86.37
2019-05-17T04:28:06.064Z,86.45
2019-05-17T04:30:54.110Z,86.46
2019-05-17T04:33:43.103Z,86.65
2019-05-17T04:36:32.181Z,85.08
2019-05-17T04:39:32.659Z,85.50
2019-05-17T04:45:25.029Z,86.28
2019-05-17T04:48:13.091Z,86.36
2019-05-17T04:51:02.232Z,86.41
2019-05-17T04:53:45.985Z,86.47
2019-05-17T04:56:34.104Z,86.35
2019-05-17T04:59:24.250Z,84.95
2019-05-17T05:02:09.024Z,85.83
2019-05-17T05:05:03.747Z,86.14
2019-05-17T05:07:53.196Z,86.34
2019-05-17T05:10:38.600Z,86.49
2019-05-17T05:13:25.465Z,86.68
2019-05-17T05:16:13.655Z,86.86
2019-05-17T05:19:02.945Z,86.85
2019-05-17T05:21:47.800Z,85.02
2019-05-17T05:27:42.961Z,85.93
2019-05-17T05:30:32.008Z,86.15
2019-05-17T05:33:18.058Z,86.15
2019-05-17T05:36:05.458Z,86.21
2019-05-17T05:38:53.887Z,84.18
2019-05-17T05:41:44.918Z,84.63
2019-05-17T05:44:33.152Z,84.83
2019-05-17T05:47:22.222Z,84.65
2019-05-17T05:50:07.480Z,84.92
2019-05-17T05:52:55.527Z,84.76
2019-05-17T05:55:43.259Z,84.78
2019-05-17T05:58:32.023Z,84.77
2019-05-17T06:01:17.706Z,84.37
2019-05-17T06:04:05.192Z,84.60
2019-05-17T06:06:52.355Z,82.59
2019-05-17T06:09:42.381Z,83.23
2019-05-17T06:12:32.089Z,83.56
2019-05-17T06:15:21.861Z,83.42
2019-05-17T06:18:07.171Z,83.56
2019-05-17T06:20:55.404Z,83.42
2019-05-17T06:23:45.695Z,83.12
2019-05-17T06:26:32.924Z,83.26
2019-05-17T06:29:22.169Z,83.09
2019-05-17T06:32:08.387Z,83.15
2019-05-17T06:34:55.199Z,83.03
2019-05-17T06:37:43.452Z,83.04
2019-05-17T06:40:32.334Z,83.05
2019-05-17T06:43:17.555Z,82.79
2019-05-17T06:46:04.543Z,82.03
2019-05-17T06:48:53.007Z,79.11
2019-05-17T06:51:39.597Z,76.48
2019-05-17T06:54:27.268Z,78.44
2019-05-17T06:57:14.307Z,79.28
2019-05-17T07:00:06.112Z,79.90
2019-05-17T07:02:49.909Z,80.26
2019-05-17T07:05:44.007Z,80.33
2019-05-17T07:08:30.686Z,80.28
2019-05-17T07:11:17.519Z,79.85
2019-05-17T07:14:04.891Z,76.22
2019-05-17T07:16:52.797Z,77.61
2019-05-17T07:19:40.216Z,77.67
2019-05-17T07:22:29.671Z,74.03
2019-05-17T07:25:30.356Z,75.92
2019-05-17T07:28:19.795Z,77.16
2019-05-17T07:31:04.663Z,77.14
2019-05-17T07:33:51.557Z,77.31
2019-05-17T07:36:40.509Z,77.82
2019-05-17T07:39:29.577Z,77.77
2019-05-17T07:42:16.591Z,77.29
2019-05-17T07:45:09.814Z,76.76
2019-05-17T07:47:55.603Z,77.23
2019-05-17T07:50:42.649Z,76.77
2019-05-17T07:53:30.655Z,76.24
2019-05-17T07:56:19.785Z,75.47
2019-05-17T07:59:05.145Z,75.46
2019-05-17T08:01:59.824Z,75.20
2019-05-17T08:04:47.162Z,75.14
2019-05-17T08:07:34.273Z,74.96
2019-05-17T08:10:21.179Z,74.32
2019-05-17T08:13:25.204Z,67.94
2019-05-17T08:15:55.627Z,70.84
2019-05-17T08:18:43.669Z,71.48
2019-05-17T08:21:39.879Z,71.63
2019-05-17T08:24:30.424Z,72.45
2019-05-17T08:27:20.157Z,72.50
2019-05-17T08:30:05.399Z,71.67
2019-05-17T08:32:52.042Z,71.54
2019-05-17T08:35:40.030Z,69.62
2019-05-17T08:38:26.283Z,69.70
2019-05-17T08:41:13.399Z,69.40
2019-05-17T08:44:01.545Z,69.42
2019-05-17T08:46:50.113Z,68.48
2019-05-17T08:49:36.322Z,61.72
2019-05-17T08:52:22.996Z,64.66
2019-05-17T08:55:10.164Z,65.00
2019-05-17T08:57:56.702Z,64.43
2019-05-17T09:00:43.636Z,64.80
2019-05-17T09:03:31.256Z,65.50
2019-05-17T09:06:19.853Z,65.17
2019-05-17T09:09:05.320Z,65.03
2019-05-17T09:11:52.693Z,64.92
2019-05-17T09:14:40.268Z,64.30
2019-05-17T09:17:29.948Z,64.28
2019-05-17T09:20:16.006Z,64.21
2019-05-17T09:23:05.080Z,63.12
2019-05-17T09:29:01.268Z,61.16
2019-05-17T09:31:46.504Z,61.66
2019-05-17T09:34:33.911Z,62.40
2019-05-17T09:40:29.281Z,61.13
2019-05-17T09:43:15.109Z,60.68
2019-05-17T09:46:01.970Z,58.73
2019-05-17T09:48:50.451Z,58.49
2019-05-17T09:51:39.484Z,57.64
2019-05-17T09:54:41.178Z,58.12
2019-05-17T09:57:11.544Z,56.34
2019-05-17T10:00:00.115Z,56.34
2019-05-17T10:02:46.380Z,54.88
2019-05-17T10:05:33.522Z,55.79
2019-05-17T10:08:20.502Z,54.15
2019-05-17T10:11:12.154Z,55.02
2019-05-17T10:14:01.121Z,51.92
2019-05-17T10:16:46.766Z,53.08
2019-05-17T10:19:34.725Z,53.04
2019-05-17T10:22:23.037Z,52.91
2019-05-17T10:25:10.200Z,50.34
2019-05-17T10:27:57.517Z,51.25
2019-05-17T10:30:44.748Z,52.24
2019-05-17T10:33:31.813Z,53.43
2019-05-17T10:36:20.176Z,45.30
2019-05-17T10:39:06.299Z,50.11
2019-05-17T10:41:53.494Z,51.05
2019-05-17T10:44:47.023Z,51.59
2019-05-17T10:47:30.093Z,44.18
2019-05-17T10:50:14.867Z,48.38
2019-05-17T10:53:02.681Z,48.96
2019-05-17T10:55:49.979Z,49.39
2019-05-17T10:58:36.703Z,48.47
2019-05-17T11:01:24.230Z,49.61
2019-05-17T11:04:11.275Z,41.94
2019-05-17T11:06:59.630Z,45.71
2019-05-17T11:09:45.140Z,47.20
2019-05-17T11:12:32.399Z,46.47
2019-05-17T11:15:19.206Z,39.95
2019-05-17T11:18:06.942Z,44.70
2019-05-17T11:20:53.661Z,45.96
2019-05-17T11:23:41.078Z,47.33
2019-05-17T11:26:28.691Z,46.90
2019-05-17T11:29:15.666Z,47.83
2019-05-17T11:32:02.520Z,47.98
2019-05-17T11:35:04.254Z,47.28
2019-05-17T11:40:57.221Z,48.91
2019-05-17T11:43:44.275Z,47.36
2019-05-17T11:46:36.216Z,47.40
2019-05-17T11:49:19.219Z,40.90
2019-05-17T11:52:06.273Z,44.94
2019-05-17T11:54:55.075Z,40.99
2019-05-17T11:57:42.331Z,40.15
2019-05-17T12:00:29.747Z,45.23
2019-05-17T12:03:18.885Z,45.77
2019-05-17T12:06:06.261Z,45.57
2019-05-17T12:08:53.141Z,47.69
2019-05-17T12:11:41.687Z,47.58
2019-05-17T12:14:29.070Z,47.67
2019-05-17T12:17:15.819Z,49.56
2019-05-17T12:20:08.649Z,49.27
2019-05-17T12:22:55.534Z,48.83
2019-05-17T12:25:42.961Z,49.73
2019-05-17T12:28:30.200Z,44.13
2019-05-17T12:31:17.135Z,46.82
2019-05-17T12:34:04.245Z,48.97
2019-05-17T12:36:52.074Z,48.96
2019-05-17T12:39:39.039Z,48.62
2019-05-17T12:42:26.284Z,48.80
2019-05-17T12:45:13.422Z,49.04
2019-05-17T12:51:07.693Z,48.78
2019-05-17T12:53:56.562Z,48.15
2019-05-17T12:56:44.326Z,48.78
2019-05-17T12:59:34.700Z,41.80
2019-05-17T13:02:23.028Z,44.99
2019-05-17T13:05:10.184Z,45.42
2019-05-17T13:07:57.410Z,45.10
2019-05-17T13:10:47.255Z,45.56
2019-05-17T13:13:35.028Z,46.78
2019-05-17T13:16:21.822Z,46.55
2019-05-17T13:19:09.043Z,47.35
2019-05-17T13:21:57.141Z,47.76
2019-05-17T13:24:44.134Z,48.18
2019-05-17T13:27:31.997Z,43.57
2019-05-17T13:30:18.836Z,47.42
2019-05-17T13:33:06.244Z,48.95
2019-05-17T13:35:53.239Z,48.90
2019-05-17T13:38:40.815Z,49.10
2019-05-17T13:41:28.748Z,49.01
2019-05-17T13:44:16.671Z,49.70
2019-05-17T13:47:03.811Z,50.54
2019-05-17T13:49:54.695Z,50.88
2019-05-17T13:52:42.226Z,51.59
2019-05-17T13:55:29.338Z,51.51
2019-05-17T13:58:17.683Z,51.45
2019-05-17T14:01:05.307Z,51.62
2019-05-17T14:03:53.536Z,51.32
2019-05-17T14:06:40.564Z,46.25
2019-05-17T14:09:28.289Z,49.25
2019-05-17T14:12:15.417Z,50.13
2019-05-17T14:15:02.749Z,50.91
2019-05-17T14:17:50.567Z,50.98
2019-05-17T14:20:37.254Z,50.60
2019-05-17T14:23:24.630Z,46.92
2019-05-17T14:26:11.510Z,49.63
2019-05-17T14:28:58.083Z,50.47
2019-05-17T14:31:45.343Z,50.54
2019-05-17T14:34:32.276Z,49.95
2019-05-17T14:37:19.599Z,50.60
2019-05-17T14:40:06.483Z,49.75
2019-05-17T14:42:54.430Z,49.61
2019-05-17T14:45:42.970Z,45.02
2019-05-17T14:48:29.774Z,48.59
2019-05-17T14:51:17.713Z,49.17
2019-05-17T14:54:04.656Z,49.25
2019-05-17T14:56:52.765Z,44.71
2019-05-17T14:59:40.496Z,48.12
2019-05-17T15:02:27.717Z,48.63
2019-05-17T15:05:15.115Z,49.24
2019-05-17T15:08:02.266Z,49.14
2019-05-17T15:10:49.293Z,48.75
2019-05-17T15:13:36.210Z,48.31
2019-05-17T15:22:35.597Z,42.25
2019-05-17T15:25:22.697Z,41.36
2019-05-17T15:28:09.445Z,39.60
2019-05-17T15:30:56.334Z,34.86
2019-05-17T15:33:43.369Z,38.23
2019-05-17T15:36:31.091Z,39.20
2019-05-17T15:39:18.501Z,40.25
2019-05-17T15:42:05.678Z,41.91
2019-05-17T15:44:52.737Z,40.50
2019-05-17T15:47:40.571Z,41.55
2019-05-17T15:50:28.020Z,42.71
2019-05-17T15:53:15.321Z,41.28
2019-05-17T15:56:02.007Z,39.52
2019-05-17T15:58:49.296Z,39.83
2019-05-17T16:01:36.357Z,41.82
2019-05-17T16:04:23.285Z,42.71
2019-05-17T16:07:10.586Z,44.64
2019-05-17T16:09:57.971Z,44.52
2019-05-17T16:13:00.948Z,40.68
2019-05-17T16:15:32.334Z,43.94
2019-05-17T16:18:19.635Z,44.80
2019-05-17T16:21:08.002Z,45.07
2019-05-17T16:23:55.042Z,44.12
2019-05-17T16:26:42.082Z,42.18
2019-05-17T16:29:29.169Z,41.68
2019-05-17T16:32:18.313Z,41.78
2019-05-17T16:35:05.146Z,41.63
2019-05-17T16:37:52.192Z,42.47
2019-05-17T16:40:39.394Z,43.74
2019-05-17T16:43:26.985Z,44.48
2019-05-17T16:46:14.153Z,43.70
2019-05-17T16:49:01.043Z,42.77
2019-05-17T16:51:48.149Z,42.05
2019-05-17T16:54:35.349Z,41.27
2019-05-17T16:57:22.806Z,40.90
2019-05-17T17:00:25.653Z,40.41
2019-05-17T17:03:13.382Z,41.70
2019-05-17T17:06:00.575Z,42.11
2019-05-17T17:08:47.739Z,41.93
2019-05-17T17:11:35.851Z,41.18
2019-05-17T17:14:22.661Z,34.89
2019-05-17T17:17:12.394Z,38.06
2019-05-17T17:19:57.614Z,38.60
2019-05-17T17:22:45.754Z,38.76
2019-05-17T17:25:33.120Z,38.66
2019-05-17T17:28:22.597Z,38.72
2019-05-17T17:31:07.443Z,38.95
2019-05-17T17:33:54.814Z,38.76
2019-05-17T17:36:41.579Z,38.88
2019-05-17T17:39:30.439Z,38.83
2019-05-17T17:42:18.235Z,38.99
2019-05-17T17:48:11.111Z,39.85
2019-05-17T17:50:58.231Z,40.41
2019-05-17T17:56:51.715Z,41.27
2019-05-17T17:59:39.725Z,41.36
2019-05-17T18:02:26.841Z,42.12
2019-05-17T18:05:14.402Z,42.77
2019-05-17T18:08:01.488Z,43.03
2019-05-17T18:10:49.321Z,43.33
2019-05-17T18:13:36.226Z,43.95
2019-05-17T18:16:37.676Z,44.90
2019-05-17T18:21:50.728Z,47.29
2019-05-17T18:24:44.929Z,44.79
2019-05-17T18:27:32.838Z,48.27
2019-05-17T18:30:19.524Z,49.55
2019-05-17T18:33:06.403Z,50.54
2019-05-17T18:35:53.789Z,51.51
2019-05-17T18:38:40.818Z,52.41
2019-05-17T18:41:42.364Z,53.34
2019-05-17T18:44:29.692Z,54.05
2019-05-17T18:47:16.426Z,54.88
2019-05-17T18:50:03.315Z,55.52
2019-05-17T18:52:50.331Z,55.85
2019-05-17T18:55:37.499Z,56.50
2019-05-17T18:58:25.364Z,57.02
2019-05-17T19:01:12.994Z,57.34
2019-05-17T19:03:59.805Z,57.53
2019-05-17T19:06:46.937Z,58.03
2019-05-17T19:09:34.138Z,58.21
2019-05-17T19:12:21.407Z,58.92
2019-05-17T19:15:08.817Z,59.28
2019-05-17T19:17:55.740Z,59.42
2019-05-17T19:20:42.959Z,59.59
2019-05-17T19:23:36.838Z,60.19
2019-05-17T19:26:31.480Z,60.97
2019-05-17T19:29:18.951Z,60.89
2019-05-17T19:32:13.800Z,60.30
2019-05-17T19:35:01.840Z,61.86
2019-05-17T19:37:48.776Z,62.07
2019-05-17T19:40:35.609Z,62.11
2019-05-17T19:43:22.592Z,62.13
2019-05-17T19:46:16.750Z,62.14
2019-05-17T19:49:04.013Z,62.71
2019-05-17T19:51:51.238Z,62.99
2019-05-17T19:54:38.328Z,63.08
2019-05-17T19:57:26.451Z,63.55
2019-05-17T20:00:14.597Z,62.68
2019-05-17T20:03:02.141Z,64.62
2019-05-17T20:05:49.565Z,64.75
2019-05-17T20:08:36.639Z,64.49
2019-05-17T20:11:33.912Z,64.63
2019-05-17T20:14:10.276Z,64.92
2019-05-17T20:16:56.998Z,65.20
2019-05-17T20:19:51.433Z,65.05
2019-05-17T20:22:38.450Z,66.47
2019-05-17T20:25:26.106Z,65.54
2019-05-17T20:28:14.085Z,65.75
2019-05-17T20:31:08.318Z,67.10
2019-05-17T20:33:56.183Z,67.03
2019-05-17T20:36:51.123Z,67.73
2019-05-17T20:39:38.634Z,68.28
2019-05-17T20:42:40.832Z,68.25
2019-05-17T20:45:42.763Z,69.10
2019-05-17T20:48:30.572Z,69.45
2019-05-17T20:51:17.663Z,69.74
2019-05-17T20:54:04.451Z,69.37
2019-05-17T20:56:54.713Z,69.99
2019-05-17T20:59:42.122Z,70.75
2019-05-17T21:02:29.385Z,70.37
2019-05-17T21:05:30.703Z,70.26
2019-05-17T21:08:18.095Z,70.80
2019-05-17T21:11:05.315Z,70.10
2019-05-17T21:17:13.662Z,69.99
2019-05-17T21:20:00.863Z,70.14
2019-05-17T21:25:53.514Z,69.72
2019-05-17T21:37:59.259Z,74.22
2019-05-17T21:40:46.020Z,74.96
2019-05-17T21:43:34.315Z,74.38
2019-05-17T21:46:21.300Z,72.16
2019-05-17T21:49:08.765Z,73.66
2019-05-17T21:51:56.194Z,74.22
2019-05-17T21:54:44.209Z,72.94
2019-05-17T21:57:45.599Z,74.83
2019-05-17T22:03:42.814Z,75.97
2019-05-17T22:06:44.086Z,76.41
2019-05-17T22:09:31.501Z,75.97
2019-05-17T22:12:19.332Z,77.38
2019-05-17T22:15:06.127Z,77.08
2019-05-17T22:17:54.368Z,77.35
2019-05-17T22:20:42.348Z,77.46
2019-05-17T22:23:30.543Z,77.81
2019-05-17T22:26:18.094Z,78.74
2019-05-17T22:32:11.294Z,79.32
2019-05-17T22:34:58.399Z,79.48
2019-05-17T22:37:45.498Z,79.26
2019-05-17T22:40:32.919Z,79.27
2019-05-17T22:43:20.248Z,77.54
2019-05-17T22:46:14.539Z,78.08
2019-05-17T22:49:02.673Z,77.13
2019-05-17T22:51:49.555Z,75.84
2019-05-17T22:54:36.805Z,74.63
2019-05-17T23:00:29.758Z,75.89
2019-05-17T23:03:17.899Z,76.34
2019-05-17T23:06:06.198Z,76.42
2019-05-17T23:08:53.136Z,76.41
2019-05-17T23:11:41.276Z,75.85
2019-05-17T23:14:28.291Z,74.29
2019-05-17T23:17:15.530Z,74.81
2019-05-17T23:20:02.972Z,75.91
2019-05-17T23:22:51.260Z,77.44
2019-05-17T23:25:38.620Z,76.87
2019-05-17T23:28:25.799Z,76.88
2019-05-17T23:31:13.788Z,78.07
2019-05-17T23:34:00.602Z,78.44
2019-05-17T23:39:55.068Z,77.91
2019-05-17T23:42:41.882Z,78.28
2019-05-17T23:48:34.656Z,78.87
2019-05-17T23:54:27.923Z,79.50
2019-05-17T23:57:15.243Z,79.56
